createdAt,value
2017-02-28T00:00:21.445Z,0
2017-02-28T00:01:21.833Z,0
2017-02-28T00:02:36.376Z,0
2017-02-28T00:03:21.888Z,0
2017-02-28T00:04:21.517Z,0
2017-02-28T00:05:21.930Z,0
2017-02-28T00:06:50.602Z,0
2017-02-28T00:07:21.949Z,0
2017-02-28T00:08:21.988Z,0
2017-02-28T00:09:21.612Z,0
2017-02-28T00:10:21.655Z,0
2017-02-28T00:11:36.561Z,0
2017-02-28T00:12:21.695Z,0
2017-02-28T00:13:21.690Z,0
2017-02-28T00:14:21.709Z,0
2017-02-28T00:15:21.790Z,0
2017-02-28T00:16:22.157Z,0
2017-02-28T00:17:22.157Z,0
2017-02-28T00:18:22.205Z,0
2017-02-28T00:19:36.739Z,0
2017-02-28T00:20:22.220Z,0
2017-02-28T00:21:36.764Z,0
2017-02-28T00:22:22.248Z,0
2017-02-28T00:23:22.595Z,0
2017-02-28T00:24:21.949Z,0
2017-02-28T00:25:22.331Z,0
2017-02-28T00:26:37.174Z,0
2017-02-28T00:27:22.379Z,0
2017-02-28T00:28:21.996Z,0
2017-02-28T00:29:21.632Z,0
2017-02-28T00:30:21.640Z,0
2017-02-28T00:31:22.452Z,0
2017-02-28T00:33:22.111Z,0
2017-02-28T00:34:22.497Z,0
2017-02-28T00:35:36.676Z,0
2017-02-28T00:36:22.543Z,0
2017-02-28T00:37:22.589Z,0
2017-02-28T00:38:22.204Z,0
2017-02-28T00:39:22.596Z,0
2017-02-28T00:40:37.149Z,0
2017-02-28T00:41:22.672Z,0
2017-02-28T00:42:22.692Z,0
2017-02-28T00:43:22.693Z,0
2017-02-28T00:44:22.320Z,0
2017-02-28T00:45:37.302Z,0
2017-02-28T00:46:22.727Z,0
2017-02-28T00:48:36.915Z,0
2017-02-28T00:49:22.413Z,0
2017-02-28T00:50:22.436Z,0
2017-02-28T00:51:22.868Z,0
2017-02-28T00:53:51.942Z,0
2017-02-28T00:54:22.940Z,0
2017-02-28T00:55:22.929Z,0
2017-02-28T00:56:22.947Z,0
2017-02-28T00:57:22.570Z,0
2017-02-28T00:58:23.001Z,0
2017-02-28T00:59:37.519Z,0
2017-02-28T01:00:21.880Z,0
2017-02-28T01:01:23.089Z,0
2017-02-28T01:02:23.081Z,0
2017-02-28T01:03:23.071Z,0
2017-02-28T01:04:37.677Z,0
2017-02-28T01:05:22.730Z,0
2017-02-28T01:06:37.674Z,0
2017-02-28T01:07:37.295Z,0
2017-02-28T01:08:22.414Z,0
2017-02-28T01:09:51.864Z,0
2017-02-28T01:10:22.846Z,0
2017-02-28T01:11:23.245Z,0
2017-02-28T01:12:23.260Z,0
2017-02-28T01:15:23.340Z,0
2017-02-28T01:16:23.373Z,0
2017-02-28T01:17:37.893Z,0
2017-02-28T01:18:23.407Z,0
2017-02-28T01:19:37.928Z,0
2017-02-28T01:20:23.065Z,0
2017-02-28T01:21:23.434Z,0
2017-02-28T01:22:23.461Z,0
2017-02-28T01:23:37.614Z,0
2017-02-28T01:24:23.523Z,0
2017-02-28T01:25:52.569Z,0
2017-02-28T01:26:23.561Z,0
2017-02-28T01:27:23.574Z,0
2017-02-28T01:28:23.589Z,0
2017-02-28T01:29:23.624Z,0
2017-02-28T01:30:23.618Z,0
2017-02-28T01:31:23.677Z,0
2017-02-28T01:32:22.906Z,0
2017-02-28T01:33:23.673Z,0
2017-02-28T01:34:23.323Z,0
2017-02-28T01:35:23.726Z,0
2017-02-28T01:36:23.370Z,0
2017-02-28T01:37:23.757Z,0
2017-02-28T01:38:23.392Z,0
2017-02-28T01:40:23.832Z,0
2017-02-28T01:41:38.366Z,0
2017-02-28T01:42:23.491Z,0
2017-02-28T01:43:23.894Z,0
2017-02-28T01:44:38.427Z,0
2017-02-28T01:45:38.453Z,0
2017-02-28T01:46:23.983Z,0
2017-02-28T01:47:23.994Z,0
2017-02-28T01:48:23.983Z,0
2017-02-28T01:50:23.267Z,0
2017-02-28T01:51:24.051Z,0
2017-02-28T01:52:24.066Z,0
2017-02-28T01:53:23.723Z,0
2017-02-28T01:54:24.100Z,0
2017-02-28T01:55:38.663Z,0
2017-02-28T01:56:38.685Z,0
2017-02-28T01:57:24.179Z,0
2017-02-28T01:58:24.199Z,0
2017-02-28T01:59:23.869Z,0
2017-02-28T02:00:23.850Z,0
2017-02-28T02:01:23.881Z,0
2017-02-28T02:03:23.909Z,0
2017-02-28T02:04:23.930Z,0
2017-02-28T02:05:39.275Z,0
2017-02-28T02:06:23.965Z,0
2017-02-28T02:07:24.009Z,0
2017-02-28T02:08:38.915Z,0
2017-02-28T02:09:38.550Z,0
2017-02-28T02:10:23.660Z,0
2017-02-28T02:11:24.452Z,0
2017-02-28T02:12:24.089Z,0
2017-02-28T02:13:24.114Z,0
2017-02-28T02:14:24.121Z,0
2017-02-28T02:15:38.707Z,0
2017-02-28T02:16:24.182Z,0
2017-02-28T02:17:39.107Z,0
2017-02-28T02:18:24.610Z,0
2017-02-28T02:19:39.145Z,0
2017-02-28T02:20:23.865Z,0
2017-02-28T02:21:39.184Z,0
2017-02-28T02:22:24.683Z,0
2017-02-28T02:23:24.320Z,0
2017-02-28T02:24:23.552Z,0
2017-02-28T02:25:24.762Z,0
2017-02-28T02:26:24.782Z,0
2017-02-28T02:27:24.023Z,0
2017-02-28T02:28:39.328Z,0
2017-02-28T02:29:24.846Z,0
2017-02-28T02:30:24.843Z,0
2017-02-28T02:31:24.862Z,0
2017-02-28T02:32:24.927Z,0
2017-02-28T02:33:39.451Z,0
2017-02-28T02:34:24.948Z,0
2017-02-28T02:35:24.967Z,0
2017-02-28T02:36:39.113Z,0
2017-02-28T02:37:25.018Z,0
2017-02-28T02:38:24.639Z,0
2017-02-28T02:39:25.031Z,0
2017-02-28T02:40:25.054Z,0
2017-02-28T02:41:24.685Z,0
2017-02-28T02:42:25.093Z,0
2017-02-28T02:43:24.744Z,0
2017-02-28T02:44:54.198Z,0
2017-02-28T02:46:24.430Z,0
2017-02-28T02:47:25.234Z,0
2017-02-28T02:48:39.742Z,0
2017-02-28T02:49:25.236Z,0
2017-02-28T02:50:24.874Z,0
2017-02-28T02:51:25.300Z,0
2017-02-28T02:52:24.536Z,0
2017-02-28T02:53:39.841Z,0
2017-02-28T02:54:25.335Z,0
2017-02-28T02:56:25.409Z,0
2017-02-28T02:57:39.936Z,0
2017-02-28T02:58:39.955Z,0
2017-02-28T02:59:25.456Z,0
2017-02-28T03:01:25.493Z,0
2017-02-28T03:02:25.120Z,0
2017-02-28T03:03:25.530Z,0
2017-02-28T03:04:25.566Z,0
2017-02-28T03:05:25.571Z,0
2017-02-28T03:06:25.605Z,0
2017-02-28T03:07:25.607Z,0
2017-02-28T03:08:40.151Z,0
2017-02-28T03:09:40.194Z,0
2017-02-28T03:10:25.294Z,0
2017-02-28T03:12:25.711Z,0
2017-02-28T03:13:25.347Z,0
2017-02-28T03:14:25.757Z,0
2017-02-28T03:15:25.769Z,0
2017-02-28T03:16:40.314Z,0
2017-02-28T03:17:25.842Z,0
2017-02-28T03:18:25.468Z,0
2017-02-28T03:19:25.855Z,0
2017-02-28T03:21:40.416Z,0
2017-02-28T03:22:25.545Z,0
2017-02-28T03:24:25.952Z,0
2017-02-28T03:25:25.596Z,0
2017-02-28T03:26:25.998Z,0
2017-02-28T03:27:26.015Z,0
2017-02-28T03:28:26.039Z,0
2017-02-28T03:29:26.049Z,0
2017-02-28T03:30:26.074Z,0
2017-02-28T03:31:40.251Z,0
2017-02-28T03:32:26.112Z,0
2017-02-28T03:33:26.141Z,0
2017-02-28T03:34:26.154Z,0
2017-02-28T03:35:25.795Z,0
2017-02-28T03:36:25.810Z,0
2017-02-28T03:37:26.254Z,0
2017-02-28T03:39:40.789Z,0
2017-02-28T03:40:26.297Z,0
2017-02-28T03:41:40.827Z,0
2017-02-28T03:42:40.463Z,0
2017-02-28T03:43:26.340Z,0
2017-02-28T03:44:26.360Z,0
2017-02-28T03:45:40.551Z,0
2017-02-28T03:46:26.414Z,0
2017-02-28T03:47:26.424Z,0
2017-02-28T03:48:26.441Z,0
2017-02-28T03:49:26.465Z,0
2017-02-28T03:50:26.116Z,0
2017-02-28T03:51:26.513Z,0
2017-02-28T03:52:26.547Z,0
2017-02-28T03:54:26.190Z,0
2017-02-28T03:55:26.205Z,0
2017-02-28T03:56:26.225Z,0
2017-02-28T03:57:26.264Z,0
2017-02-28T03:58:26.283Z,0
2017-02-28T03:59:25.899Z,0
2017-02-28T04:01:26.738Z,0
2017-02-28T04:02:26.366Z,0
2017-02-28T04:03:40.895Z,0
2017-02-28T04:04:26.775Z,0
2017-02-28T04:05:26.817Z,0
2017-02-28T04:06:26.826Z,0
2017-02-28T04:07:26.835Z,0
2017-02-28T04:09:26.540Z,0
2017-02-28T04:10:26.902Z,0
2017-02-28T04:11:26.936Z,0
2017-02-28T04:13:26.960Z,0
2017-02-28T04:14:26.995Z,0
2017-02-28T04:15:27.003Z,0
2017-02-28T04:16:27.021Z,0
2017-02-28T04:17:27.077Z,0
2017-02-28T04:18:27.077Z,0
2017-02-28T04:19:41.626Z,0
2017-02-28T04:20:27.109Z,0
2017-02-28T04:21:26.748Z,0
2017-02-28T04:22:27.249Z,0
2017-02-28T04:23:27.181Z,0
2017-02-28T04:24:26.809Z,0
2017-02-28T04:25:41.355Z,0
2017-02-28T04:26:27.246Z,0
2017-02-28T04:27:27.258Z,0
2017-02-28T04:28:26.881Z,0
2017-02-28T04:29:41.830Z,0
2017-02-28T04:30:26.939Z,0
2017-02-28T04:31:27.335Z,0
2017-02-28T04:32:41.493Z,0
2017-02-28T04:33:27.377Z,0
2017-02-28T04:34:27.406Z,0
2017-02-28T04:35:41.953Z,0
2017-02-28T04:36:27.438Z,0
2017-02-28T04:37:27.079Z,0
2017-02-28T04:38:27.122Z,0
2017-02-28T04:39:27.539Z,0
2017-02-28T04:40:27.532Z,0
2017-02-28T04:41:27.549Z,0
2017-02-28T04:42:56.624Z,0
2017-02-28T04:44:27.212Z,0
2017-02-28T04:45:42.157Z,0
2017-02-28T04:46:27.268Z,0
2017-02-28T04:47:27.301Z,0
2017-02-28T04:49:27.715Z,0
2017-02-28T04:50:27.728Z,0
2017-02-28T04:51:42.295Z,0
2017-02-28T04:52:27.384Z,0
2017-02-28T04:53:27.808Z,0
2017-02-28T04:54:27.816Z,0
2017-02-28T04:55:42.371Z,0
2017-02-28T04:56:27.859Z,0
2017-02-28T04:57:42.423Z,0
2017-02-28T04:58:27.910Z,0
2017-02-28T04:59:27.947Z,0
2017-02-28T05:00:42.461Z,0
2017-02-28T05:01:27.971Z,0
2017-02-28T05:02:27.602Z,0
2017-02-28T05:03:27.999Z,0
2017-02-28T05:04:27.272Z,0
2017-02-28T05:05:27.656Z,0
2017-02-28T05:06:42.596Z,0
2017-02-28T05:07:28.097Z,0
2017-02-28T05:08:28.112Z,0
2017-02-28T05:09:42.272Z,0
2017-02-28T05:10:28.145Z,0
2017-02-28T05:11:27.805Z,0
2017-02-28T05:12:28.198Z,0
2017-02-28T05:13:42.735Z,0
2017-02-28T05:14:42.754Z,0
2017-02-28T05:15:28.252Z,0
2017-02-28T05:16:42.812Z,0
2017-02-28T05:17:28.311Z,0
2017-02-28T05:18:28.334Z,0
2017-02-28T05:19:28.400Z,0
2017-02-28T05:20:28.380Z,0
2017-02-28T05:21:42.924Z,0
2017-02-28T05:22:28.035Z,0
2017-02-28T05:23:42.942Z,0
2017-02-28T05:24:28.428Z,0
2017-02-28T05:25:28.467Z,0
2017-02-28T05:26:28.477Z,0
2017-02-28T05:27:28.493Z,0
2017-02-28T05:28:28.520Z,0
2017-02-28T05:30:28.557Z,0
2017-02-28T05:32:28.621Z,0
2017-02-28T05:33:28.627Z,0
2017-02-28T05:34:28.250Z,0
2017-02-28T05:35:29.158Z,0
2017-02-28T05:36:28.330Z,0
2017-02-28T05:37:28.311Z,0
2017-02-28T05:38:43.248Z,0
2017-02-28T05:39:43.279Z,0
2017-02-28T05:40:28.765Z,0
2017-02-28T05:41:28.785Z,0
2017-02-28T05:42:28.432Z,0
2017-02-28T05:43:28.448Z,0
2017-02-28T05:44:28.848Z,0
2017-02-28T05:45:28.905Z,0
2017-02-28T05:46:43.030Z,0
2017-02-28T05:47:28.546Z,0
2017-02-28T05:48:28.579Z,0
2017-02-28T05:49:28.569Z,0
2017-02-28T05:50:43.497Z,0
2017-02-28T05:51:28.614Z,0
2017-02-28T05:52:28.650Z,0
2017-02-28T05:53:29.074Z,0
2017-02-28T05:54:43.606Z,0
2017-02-28T05:55:43.621Z,0
2017-02-28T05:56:29.105Z,0
2017-02-28T05:57:29.155Z,0
2017-02-28T05:58:28.772Z,0
2017-02-28T05:59:28.788Z,0
2017-02-28T06:00:29.183Z,0
2017-02-28T06:01:29.230Z,0
2017-02-28T06:02:29.233Z,0
2017-02-28T06:03:29.271Z,0
2017-02-28T06:04:28.904Z,0
2017-02-28T06:05:29.308Z,0
2017-02-28T06:06:29.321Z,0
2017-02-28T06:07:43.875Z,0
2017-02-28T06:08:29.367Z,0
2017-02-28T06:09:29.382Z,0
2017-02-28T06:10:58.055Z,0
2017-02-28T06:11:29.024Z,0
2017-02-28T06:12:29.051Z,0
2017-02-28T06:13:29.467Z,0
2017-02-28T06:14:29.467Z,0
2017-02-28T06:15:44.056Z,0
2017-02-28T06:16:44.060Z,0
2017-02-28T06:17:29.574Z,0
2017-02-28T06:18:29.552Z,0
2017-02-28T06:19:29.582Z,5
2017-02-28T06:20:44.120Z,5
2017-02-28T06:21:29.619Z,5
2017-02-28T06:22:44.173Z,5
2017-02-28T06:23:29.717Z,5
2017-02-28T06:24:29.676Z,5
2017-02-28T06:25:44.256Z,5
2017-02-28T06:26:44.246Z,5
2017-02-28T06:27:29.781Z,5
2017-02-28T06:28:29.382Z,5
2017-02-28T06:29:29.431Z,5
2017-02-28T06:30:29.830Z,5
2017-02-28T06:31:29.863Z,5
2017-02-28T06:32:29.860Z,5
2017-02-28T06:34:44.427Z,5
2017-02-28T06:35:29.928Z,5
2017-02-28T06:36:44.083Z,5
2017-02-28T06:37:29.964Z,5
2017-02-28T06:38:30.303Z,5
2017-02-28T06:39:30.003Z,5
2017-02-28T06:40:29.626Z,5
2017-02-28T06:41:44.591Z,5
2017-02-28T06:44:44.636Z,5
2017-02-28T06:45:30.155Z,5
2017-02-28T06:46:29.751Z,10
2017-02-28T06:47:30.078Z,10
2017-02-28T06:48:30.185Z,10
2017-02-28T06:49:30.203Z,10
2017-02-28T06:50:30.243Z,10
2017-02-28T06:51:44.763Z,10
2017-02-28T06:52:29.875Z,10
2017-02-28T06:53:30.347Z,10
2017-02-28T06:54:30.357Z,10
2017-02-28T06:55:29.586Z,10
2017-02-28T06:56:30.391Z,10
2017-02-28T06:57:30.421Z,10
2017-02-28T06:58:30.379Z,10
2017-02-28T06:59:30.446Z,10
2017-02-28T07:00:30.424Z,10
2017-02-28T07:01:30.469Z,10
2017-02-28T07:02:30.493Z,10
2017-02-28T07:03:30.491Z,10
2017-02-28T07:04:30.127Z,10
2017-02-28T07:05:30.547Z,10
2017-02-28T07:06:30.551Z,10
2017-02-28T07:07:30.631Z,10
2017-02-28T07:08:30.598Z,10
2017-02-28T07:09:30.653Z,15
2017-02-28T07:10:30.252Z,15
2017-02-28T07:11:30.704Z,15
2017-02-28T07:12:30.689Z,15
2017-02-28T07:13:45.245Z,15
2017-02-28T07:14:30.750Z,15
2017-02-28T07:15:30.739Z,15
2017-02-28T07:16:30.372Z,15
2017-02-28T07:17:45.328Z,15
2017-02-28T07:18:45.329Z,15
2017-02-28T07:19:30.845Z,15
2017-02-28T07:20:45.367Z,15
2017-02-28T07:21:45.418Z,15
2017-02-28T07:22:30.496Z,20
2017-02-28T07:23:30.542Z,20
2017-02-28T07:24:30.964Z,20
2017-02-28T07:25:30.973Z,20
2017-02-28T07:26:30.991Z,20
2017-02-28T07:27:31.046Z,20
2017-02-28T07:28:31.017Z,20
2017-02-28T07:29:45.569Z,20
2017-02-28T07:30:31.057Z,25
2017-02-28T07:31:30.680Z,25
2017-02-28T07:32:31.085Z,25
2017-02-28T07:33:31.131Z,25
2017-02-28T07:34:31.120Z,25
2017-02-28T07:35:31.149Z,30
2017-02-28T07:36:30.779Z,30
2017-02-28T07:37:45.728Z,25
2017-02-28T07:38:31.221Z,25
2017-02-28T07:39:31.230Z,25
2017-02-28T07:40:31.266Z,25
2017-02-28T07:41:31.268Z,20
2017-02-28T07:42:45.816Z,20
2017-02-28T07:43:31.326Z,20
2017-02-28T07:44:30.965Z,20
2017-02-28T07:45:45.881Z,20
2017-02-28T07:46:30.996Z,20
2017-02-28T07:47:31.392Z,20
2017-02-28T07:48:31.437Z,15
2017-02-28T07:49:31.440Z,20
2017-02-28T07:50:31.491Z,20
2017-02-28T07:51:46.007Z,20
2017-02-28T07:52:46.026Z,20
2017-02-28T07:53:46.045Z,20
2017-02-28T07:54:46.091Z,20
2017-02-28T07:55:46.085Z,20
2017-02-28T07:56:46.104Z,25
2017-02-28T07:58:31.651Z,25
2017-02-28T07:59:31.675Z,25
2017-02-28T08:00:31.682Z,25
2017-02-28T08:01:46.211Z,25
2017-02-28T08:02:31.723Z,25
2017-02-28T08:03:31.360Z,25
2017-02-28T08:04:31.753Z,30
2017-02-28T08:05:31.779Z,30
2017-02-28T08:06:31.806Z,30
2017-02-28T08:07:31.806Z,35
2017-02-28T08:09:00.502Z,35
2017-02-28T08:09:46.385Z,35
2017-02-28T08:11:31.901Z,35
2017-02-28T08:12:46.432Z,35
2017-02-28T08:13:31.940Z,35
2017-02-28T08:14:31.947Z,35
2017-02-28T08:15:31.965Z,30
2017-02-28T08:16:46.544Z,30
2017-02-28T08:17:32.018Z,30
2017-02-28T08:18:32.029Z,35
2017-02-28T08:19:32.058Z,35
2017-02-28T08:21:32.142Z,35
2017-02-28T08:23:32.185Z,40
2017-02-28T08:24:32.152Z,40
2017-02-28T08:25:32.180Z,45
2017-02-28T08:26:32.229Z,45
2017-02-28T08:27:46.768Z,45
2017-02-28T08:28:32.263Z,45
2017-02-28T08:29:32.255Z,45
2017-02-28T08:30:32.311Z,45
2017-02-28T08:31:32.298Z,50
2017-02-28T08:32:32.318Z,50
2017-02-28T08:33:32.335Z,50
2017-02-28T08:34:32.370Z,55
2017-02-28T08:35:46.913Z,60
2017-02-28T08:36:32.853Z,60
2017-02-28T08:37:32.439Z,60
2017-02-28T08:38:32.483Z,60
2017-02-28T08:39:32.471Z,60
2017-02-28T08:40:32.482Z,60
2017-02-28T08:41:32.113Z,55
2017-02-28T08:42:32.522Z,50
2017-02-28T08:43:32.543Z,50
2017-02-28T08:44:47.089Z,50
2017-02-28T08:45:32.611Z,50
2017-02-28T08:46:32.605Z,50
2017-02-28T08:48:47.176Z,55
2017-02-28T08:49:32.666Z,50
2017-02-28T08:50:32.689Z,50
2017-02-28T08:51:32.719Z,55
2017-02-28T08:52:32.732Z,60
2017-02-28T08:53:32.374Z,60
2017-02-28T08:54:32.779Z,65
2017-02-28T08:55:32.823Z,65
2017-02-28T08:56:32.816Z,65
2017-02-28T08:57:32.853Z,65
2017-02-28T08:58:32.862Z,65
2017-02-28T08:59:32.878Z,65
2017-02-28T09:00:32.899Z,65
2017-02-28T09:01:32.529Z,70
2017-02-28T09:02:32.956Z,75
2017-02-28T09:04:47.119Z,80
2017-02-28T09:05:47.553Z,80
2017-02-28T09:06:32.674Z,90
2017-02-28T09:07:32.668Z,85
2017-02-28T09:08:33.071Z,85
2017-02-28T09:09:47.613Z,85
2017-02-28T09:10:32.712Z,85
2017-02-28T09:11:33.136Z,85
2017-02-28T09:12:33.186Z,85
2017-02-28T09:13:32.790Z,85
2017-02-28T09:14:33.189Z,85
2017-02-28T09:15:33.209Z,85
2017-02-28T09:16:33.257Z,80
2017-02-28T09:17:32.862Z,80
2017-02-28T09:18:33.290Z,80
2017-02-28T09:19:33.307Z,80
2017-02-28T09:21:02.365Z,80
2017-02-28T09:22:33.359Z,90
2017-02-28T09:23:33.422Z,85
2017-02-28T09:24:47.545Z,85
2017-02-28T09:25:33.428Z,80
2017-02-28T09:28:33.499Z,85
2017-02-28T09:29:33.510Z,85
2017-02-28T09:30:33.550Z,95
2017-02-28T09:31:48.087Z,90
2017-02-28T09:32:33.201Z,90
2017-02-28T09:33:33.598Z,95
2017-02-28T09:34:33.605Z,95
2017-02-28T09:35:33.641Z,100
2017-02-28T09:37:33.702Z,100
2017-02-28T09:38:33.718Z,100
2017-02-28T09:39:33.711Z,100
2017-02-28T09:40:33.731Z,100
2017-02-28T09:41:33.012Z,100
2017-02-28T09:42:33.792Z,105
2017-02-28T09:43:33.794Z,110
2017-02-28T09:44:48.346Z,105
2017-02-28T09:45:33.840Z,100
2017-02-28T09:46:33.878Z,100
2017-02-28T09:47:33.906Z,95
2017-02-28T09:48:33.538Z,90
2017-02-28T09:49:33.989Z,90
2017-02-28T09:50:33.576Z,95
2017-02-28T09:51:48.509Z,90
2017-02-28T09:53:34.016Z,95
2017-02-28T09:54:34.027Z,100
2017-02-28T09:55:34.056Z,100
2017-02-28T09:56:48.423Z,105
2017-02-28T09:57:48.628Z,105
2017-02-28T09:58:34.117Z,100
2017-02-28T09:59:34.152Z,100
2017-02-28T10:00:34.157Z,100
2017-02-28T10:01:34.193Z,100
2017-02-28T10:02:33.828Z,100
2017-02-28T10:03:34.249Z,100
2017-02-28T10:04:34.256Z,100
2017-02-28T10:05:34.261Z,100
2017-02-28T10:06:34.322Z,100
2017-02-28T10:07:34.333Z,100
2017-02-28T10:08:33.979Z,100
2017-02-28T10:09:33.969Z,100
2017-02-28T10:10:34.399Z,95
2017-02-28T10:11:34.454Z,95
2017-02-28T10:12:34.458Z,95
2017-02-28T10:13:34.479Z,95
2017-02-28T10:14:34.464Z,100
2017-02-28T10:15:33.702Z,100
2017-02-28T10:16:34.110Z,105
2017-02-28T10:17:34.545Z,110
2017-02-28T10:18:34.541Z,110
2017-02-28T10:19:34.555Z,110
2017-02-28T10:20:34.580Z,105
2017-02-28T10:21:34.629Z,105
2017-02-28T10:22:34.661Z,105
2017-02-28T10:23:49.190Z,105
2017-02-28T10:24:34.697Z,105
2017-02-28T10:25:34.697Z,105
2017-02-28T10:26:34.715Z,105
2017-02-28T10:27:34.387Z,105
2017-02-28T10:28:34.388Z,105
2017-02-28T10:29:49.301Z,110
2017-02-28T10:30:34.816Z,110
2017-02-28T10:31:34.825Z,110
2017-02-28T10:32:34.874Z,110
2017-02-28T10:33:34.883Z,110
2017-02-28T10:34:34.896Z,110
2017-02-28T10:35:34.919Z,110
2017-02-28T10:37:34.965Z,115
2017-02-28T10:39:49.518Z,115
2017-02-28T10:40:34.654Z,115
2017-02-28T10:41:35.075Z,115
2017-02-28T10:42:35.064Z,115
2017-02-28T10:43:49.623Z,110
2017-02-28T10:44:35.117Z,110
2017-02-28T10:45:35.124Z,100
2017-02-28T10:46:35.177Z,90
2017-02-28T10:47:35.160Z,75
2017-02-28T10:48:35.219Z,65
2017-02-28T10:49:35.223Z,55
2017-02-28T10:50:34.855Z,50
2017-02-28T10:51:35.301Z,40
2017-02-28T10:52:34.903Z,35
2017-02-28T10:53:49.821Z,35
2017-02-28T10:54:35.345Z,35
2017-02-28T10:55:49.871Z,45
2017-02-28T10:56:35.668Z,45
2017-02-28T10:57:34.992Z,40
2017-02-28T10:58:35.409Z,45
2017-02-28T10:59:35.423Z,50
2017-02-28T11:00:49.965Z,60
2017-02-28T11:01:35.460Z,65
2017-02-28T11:02:35.521Z,75
2017-02-28T11:03:50.034Z,80
2017-02-28T11:04:35.151Z,75
2017-02-28T11:05:50.076Z,65
2017-02-28T11:06:35.576Z,60
2017-02-28T11:07:35.589Z,60
2017-02-28T11:08:35.624Z,70
2017-02-28T11:09:35.248Z,90
2017-02-28T11:10:35.268Z,120
2017-02-28T11:11:50.197Z,155
2017-02-28T11:12:35.711Z,150
2017-02-28T11:13:35.759Z,145
2017-02-28T11:14:35.728Z,120
2017-02-28T11:15:35.754Z,115
2017-02-28T11:17:35.788Z,90
2017-02-28T11:18:35.439Z,105
2017-02-28T11:19:50.394Z,155
2017-02-28T11:20:35.883Z,175
2017-02-28T11:21:35.893Z,180
2017-02-28T11:22:35.926Z,190
2017-02-28T11:23:35.927Z,170
2017-02-28T11:24:35.562Z,165
2017-02-28T11:25:35.595Z,165
2017-02-28T11:26:50.523Z,165
2017-02-28T11:27:36.041Z,170
2017-02-28T11:30:36.083Z,190
2017-02-28T11:31:50.238Z,185
2017-02-28T11:32:36.139Z,190
2017-02-28T11:33:50.283Z,175
2017-02-28T11:34:35.803Z,185
2017-02-28T11:35:35.797Z,155
2017-02-28T11:36:36.220Z,160
2017-02-28T11:37:36.252Z,160
2017-02-28T11:38:36.275Z,180
2017-02-28T11:39:36.284Z,155
2017-02-28T11:40:35.927Z,145
2017-02-28T11:41:36.326Z,135
2017-02-28T11:42:35.972Z,125
2017-02-28T11:43:36.377Z,125
2017-02-28T11:45:36.024Z,150
2017-02-28T11:47:36.485Z,150
2017-02-28T11:48:36.481Z,150
2017-02-28T11:49:36.788Z,150
2017-02-28T11:50:50.654Z,145
2017-02-28T11:51:36.540Z,165
2017-02-28T11:52:36.578Z,175
2017-02-28T11:53:36.619Z,185
2017-02-28T11:54:36.595Z,140
2017-02-28T11:55:36.694Z,175
2017-02-28T11:56:36.669Z,175
2017-02-28T11:57:36.680Z,190
2017-02-28T11:58:51.226Z,160
2017-02-28T11:59:36.335Z,155
2017-02-28T12:00:36.391Z,120
2017-02-28T12:01:36.756Z,155
2017-02-28T12:02:36.784Z,150
2017-02-28T12:03:36.795Z,115
2017-02-28T12:04:36.816Z,110
2017-02-28T12:05:36.860Z,155
2017-02-28T12:06:36.866Z,150
2017-02-28T12:07:36.938Z,120
2017-02-28T12:08:36.910Z,145
2017-02-28T12:09:36.941Z,140
2017-02-28T12:10:36.958Z,140
2017-02-28T12:11:51.516Z,135
2017-02-28T12:12:51.137Z,135
2017-02-28T12:14:51.582Z,130
2017-02-28T12:15:37.106Z,135
2017-02-28T12:16:37.145Z,115
2017-02-28T12:17:51.640Z,95
2017-02-28T12:18:51.669Z,95
2017-02-28T12:19:37.171Z,95
2017-02-28T12:21:37.195Z,130
2017-02-28T12:22:51.777Z,155
2017-02-28T12:23:36.851Z,155
2017-02-28T12:24:37.283Z,155
2017-02-28T12:25:37.341Z,155
2017-02-28T12:28:51.900Z,145
2017-02-28T12:29:37.382Z,145
2017-02-28T12:30:51.924Z,130
2017-02-28T12:31:37.425Z,160
2017-02-28T12:32:37.058Z,165
2017-02-28T12:33:37.470Z,150
2017-02-28T12:34:37.478Z,165
2017-02-28T12:35:52.049Z,160
2017-02-28T12:36:37.538Z,155
2017-02-28T12:37:36.771Z,160
2017-02-28T12:38:37.564Z,155
2017-02-28T12:39:37.210Z,160
2017-02-28T12:40:37.613Z,165
2017-02-28T12:41:52.179Z,170
2017-02-28T12:42:37.670Z,165
2017-02-28T12:44:37.701Z,165
2017-02-28T12:45:37.722Z,170
2017-02-28T12:46:52.276Z,170
2017-02-28T12:47:37.775Z,165
2017-02-28T12:48:37.823Z,150
2017-02-28T12:49:37.828Z,160
2017-02-28T12:50:37.446Z,130
2017-02-28T12:51:37.852Z,130
2017-02-28T12:53:37.912Z,115
2017-02-28T12:54:37.949Z,105
2017-02-28T12:55:37.947Z,135
2017-02-28T12:56:37.988Z,125
2017-02-28T12:57:37.987Z,165
2017-02-28T12:58:37.624Z,175
2017-02-28T12:59:38.036Z,175
2017-02-28T13:00:52.609Z,175
2017-02-28T13:01:52.605Z,175
2017-02-28T13:02:38.100Z,175
2017-02-28T13:03:37.732Z,165
2017-02-28T13:04:52.678Z,135
2017-02-28T13:05:38.166Z,110
2017-02-28T13:06:37.831Z,130
2017-02-28T13:07:38.262Z,105
2017-02-28T13:08:37.852Z,140
2017-02-28T13:09:38.289Z,100
2017-02-28T13:10:38.273Z,145
2017-02-28T13:11:38.307Z,95
2017-02-28T13:12:38.335Z,95
2017-02-28T13:13:37.969Z,125
2017-02-28T13:14:37.988Z,100
2017-02-28T13:15:38.389Z,135
2017-02-28T13:16:38.425Z,155
2017-02-28T13:17:38.444Z,155
2017-02-28T13:18:38.453Z,105
2017-02-28T13:19:38.106Z,95
2017-02-28T13:20:38.515Z,95
2017-02-28T13:21:38.519Z,150
2017-02-28T13:22:38.181Z,140
2017-02-28T13:23:38.181Z,145
2017-02-28T13:24:39.150Z,120
2017-02-28T13:25:38.626Z,95
2017-02-28T13:26:38.249Z,105
2017-02-28T13:27:38.656Z,145
2017-02-28T13:28:38.322Z,110
2017-02-28T13:29:38.711Z,90
2017-02-28T13:30:38.743Z,145
2017-02-28T13:31:38.369Z,145
2017-02-28T13:32:38.384Z,140
2017-02-28T13:33:53.314Z,130
2017-02-28T13:34:38.421Z,135
2017-02-28T13:36:38.091Z,135
2017-02-28T13:37:38.882Z,135
2017-02-28T13:38:38.521Z,135
2017-02-28T13:39:38.919Z,140
2017-02-28T13:40:38.987Z,140
2017-02-28T13:41:53.102Z,140
2017-02-28T13:42:53.528Z,140
2017-02-28T13:43:39.034Z,140
2017-02-28T13:44:39.054Z,140
2017-02-28T13:45:53.590Z,135
2017-02-28T13:46:39.092Z,135
2017-02-28T13:47:39.126Z,135
2017-02-28T13:48:39.131Z,135
2017-02-28T13:49:53.683Z,135
2017-02-28T13:51:39.185Z,135
2017-02-28T13:52:39.232Z,135
2017-02-28T13:53:39.222Z,135
2017-02-28T13:54:39.287Z,135
2017-02-28T13:55:39.273Z,135
2017-02-28T13:56:39.289Z,140
2017-02-28T13:57:39.321Z,100
2017-02-28T13:58:39.349Z,130
2017-02-28T14:00:53.915Z,115
2017-02-28T14:01:39.404Z,145
2017-02-28T14:02:39.437Z,135
2017-02-28T14:03:39.464Z,95
2017-02-28T14:04:39.486Z,95
2017-02-28T14:06:08.576Z,90
2017-02-28T14:06:39.508Z,85
2017-02-28T14:07:39.533Z,85
2017-02-28T14:08:39.562Z,85
2017-02-28T14:09:39.191Z,85
2017-02-28T14:10:39.604Z,85
2017-02-28T14:11:39.645Z,80
2017-02-28T14:12:54.190Z,80
2017-02-28T14:13:39.664Z,80
2017-02-28T14:14:39.698Z,75
2017-02-28T14:15:39.722Z,75
2017-02-28T14:17:39.778Z,115
2017-02-28T14:18:39.787Z,75
2017-02-28T14:19:39.814Z,75
2017-02-28T14:21:54.372Z,85
2017-02-28T14:22:39.865Z,90
2017-02-28T14:23:39.505Z,90
2017-02-28T14:24:39.522Z,95
2017-02-28T14:25:39.931Z,125
2017-02-28T14:26:39.963Z,150
2017-02-28T14:28:08.652Z,145
2017-02-28T14:28:39.617Z,145
2017-02-28T14:29:54.545Z,145
2017-02-28T14:30:54.565Z,140
2017-02-28T14:31:40.097Z,135
2017-02-28T14:32:40.095Z,135
2017-02-28T14:33:39.764Z,130
2017-02-28T14:34:39.739Z,125
2017-02-28T14:35:39.766Z,80
2017-02-28T14:36:54.703Z,120
2017-02-28T14:37:40.202Z,120
2017-02-28T14:38:40.211Z,120
2017-02-28T14:39:54.773Z,120
2017-02-28T14:40:39.877Z,110
2017-02-28T14:41:39.897Z,115
2017-02-28T14:42:40.324Z,110
2017-02-28T14:43:54.858Z,115
2017-02-28T14:44:40.003Z,115
2017-02-28T14:45:40.258Z,120
2017-02-28T14:46:40.011Z,120
2017-02-28T14:47:40.440Z,115
2017-02-28T14:48:54.988Z,75
2017-02-28T14:49:40.507Z,70
2017-02-28T14:50:40.516Z,65
2017-02-28T14:51:40.128Z,65
2017-02-28T14:52:40.546Z,85
2017-02-28T14:53:40.589Z,85
2017-02-28T14:54:40.190Z,65
2017-02-28T14:55:40.625Z,80
2017-02-28T14:56:39.845Z,80
2017-02-28T14:57:40.649Z,70
2017-02-28T14:58:39.899Z,85
2017-02-28T14:59:40.685Z,100
2017-02-28T15:00:55.231Z,110
2017-02-28T15:01:40.767Z,110
2017-02-28T15:02:40.740Z,95
2017-02-28T15:03:40.768Z,85
2017-02-28T15:04:40.813Z,80
2017-02-28T15:05:40.810Z,75
2017-02-28T15:06:40.859Z,75
2017-02-28T15:07:40.903Z,75
2017-02-28T15:08:55.418Z,75
2017-02-28T15:09:40.523Z,65
2017-02-28T15:10:41.295Z,60
2017-02-28T15:11:40.975Z,60
2017-02-28T15:12:40.985Z,60
2017-02-28T15:13:41.007Z,55
2017-02-28T15:14:41.018Z,55
2017-02-28T15:15:41.039Z,50